createdAt,value
2023-11-23T00:01:37.952Z,85.06
2023-11-23T00:04:06.487Z,85.18
2023-11-23T00:06:34.840Z,85.49
2023-11-23T00:09:06.590Z,85.26
2023-11-23T00:11:34.684Z,85.31
2023-11-23T00:14:04.294Z,85.74
2023-11-23T00:16:32.565Z,85.84
2023-11-23T00:19:00.580Z,86.14
2023-11-23T00:21:28.763Z,87.67
2023-11-23T00:23:56.895Z,86.67
2023-11-23T00:26:25.061Z,86.69
2023-11-23T00:28:57.677Z,87.82
2023-11-23T00:31:25.626Z,86.57
2023-11-23T00:33:53.832Z,86.43
2023-11-23T00:36:22.026Z,86.85
2023-11-23T00:38:50.126Z,86.94
2023-11-23T00:41:19.100Z,86.56
2023-11-23T00:43:47.119Z,86.61
2023-11-23T00:46:16.887Z,86.80
2023-11-23T00:48:44.959Z,86.74
2023-11-23T00:51:13.214Z,86.97
2023-11-23T00:53:41.661Z,86.94
2023-11-23T00:56:09.737Z,86.94
2023-11-23T00:58:37.749Z,86.97
2023-11-23T01:01:05.968Z,86.84
2023-11-23T01:03:34.293Z,87.15
2023-11-23T01:06:02.511Z,86.75
2023-11-23T01:08:30.521Z,86.63
2023-11-23T01:11:00.684Z,86.84
2023-11-23T01:13:33.181Z,86.92
2023-11-23T01:16:03.205Z,86.42
2023-11-23T01:18:31.662Z,87.00
2023-11-23T01:20:59.906Z,86.89
2023-11-23T01:23:27.965Z,87.15
2023-11-23T01:25:55.971Z,87.24
2023-11-23T01:28:23.999Z,87.11
2023-11-23T01:30:52.132Z,87.32
2023-11-23T01:33:20.407Z,87.45
2023-11-23T01:35:48.517Z,87.36
2023-11-23T01:38:16.575Z,87.46
2023-11-23T01:40:44.613Z,87.85
2023-11-23T01:43:12.804Z,87.79
2023-11-23T01:45:40.885Z,87.75
2023-11-23T01:48:10.238Z,88.27
2023-11-23T01:50:42.112Z,88.15
2023-11-23T01:53:12.829Z,87.98
2023-11-23T01:55:41.184Z,87.95
2023-11-23T01:58:11.545Z,88.18
2023-11-23T02:00:39.567Z,88.19
2023-11-23T02:03:08.901Z,88.50
2023-11-23T02:05:37.300Z,88.65
2023-11-23T02:08:06.242Z,89.19
2023-11-23T02:10:35.254Z,89.02
2023-11-23T02:13:05.185Z,89.27
2023-11-23T02:15:33.602Z,89.08
2023-11-23T02:18:09.069Z,89.15
2023-11-23T02:20:37.485Z,90.07
2023-11-23T02:23:05.580Z,90.08
2023-11-23T02:25:33.733Z,90.09
2023-11-23T02:28:01.752Z,90.67
2023-11-23T02:30:29.837Z,91.23
2023-11-23T02:33:02.748Z,91.14
2023-11-23T02:35:31.177Z,91.31
2023-11-23T02:37:59.288Z,91.26
2023-11-23T02:40:27.344Z,91.33
2023-11-23T02:42:56.132Z,91.44
2023-11-23T02:45:24.277Z,91.48
2023-11-23T02:47:54.131Z,91.73
2023-11-23T02:50:22.175Z,91.73
2023-11-23T02:52:50.418Z,91.79
2023-11-23T02:55:18.537Z,91.90
2023-11-23T02:57:46.546Z,92.33
2023-11-23T03:00:14.816Z,92.66
2023-11-23T03:02:42.976Z,92.95
2023-11-23T03:05:13.871Z,93.19
2023-11-23T03:07:41.938Z,93.14
2023-11-23T03:10:10.806Z,93.51
2023-11-23T03:12:38.892Z,93.61
2023-11-23T03:15:07.829Z,93.53
2023-11-23T03:17:36.179Z,93.66
2023-11-23T03:20:04.630Z,93.94
2023-11-23T03:22:33.764Z,93.89
2023-11-23T03:25:01.872Z,94.40
2023-11-23T03:27:30.881Z,94.52
2023-11-23T03:29:58.939Z,94.38
2023-11-23T03:32:31.084Z,94.27
2023-11-23T03:35:00.862Z,94.28
2023-11-23T03:37:29.004Z,94.58
2023-11-23T03:39:58.513Z,94.71
2023-11-23T03:42:26.688Z,95.07
2023-11-23T03:44:54.808Z,94.80
2023-11-23T03:47:22.806Z,95.01
2023-11-23T03:49:52.605Z,94.85
2023-11-23T03:52:20.656Z,95.25
2023-11-23T03:54:48.664Z,95.30
2023-11-23T03:57:16.852Z,95.53
2023-11-23T03:59:44.885Z,95.62
2023-11-23T04:02:12.977Z,95.90
2023-11-23T04:04:41.143Z,96.21
2023-11-23T04:07:09.140Z,96.27
2023-11-23T04:09:37.457Z,96.53
2023-11-23T04:12:06.316Z,96.77
2023-11-23T04:14:34.438Z,97.02
2023-11-23T04:17:02.579Z,97.24
2023-11-23T04:19:30.674Z,97.44
2023-11-23T04:22:00.507Z,97.62
2023-11-23T04:24:28.862Z,97.45
2023-11-23T04:26:56.931Z,97.32
2023-11-23T04:29:25.022Z,97.13
2023-11-23T04:31:53.033Z,97.23
2023-11-23T04:34:21.093Z,97.27
2023-11-23T04:36:49.806Z,97.06
2023-11-23T04:39:17.811Z,97.00
2023-11-23T04:41:45.901Z,96.74
2023-11-23T04:44:13.996Z,96.61
2023-11-23T04:46:42.388Z,96.53
2023-11-23T04:49:10.515Z,96.56
2023-11-23T04:51:38.552Z,96.54
2023-11-23T04:54:06.865Z,96.82
2023-11-23T04:56:35.514Z,96.86
2023-11-23T04:59:06.355Z,96.62
2023-11-23T05:01:34.394Z,96.53
2023-11-23T05:04:05.705Z,96.76
2023-11-23T05:06:34.362Z,97.07
2023-11-23T05:09:03.800Z,97.33
2023-11-23T05:11:31.842Z,97.08
2023-11-23T05:14:08.286Z,97.00
2023-11-23T05:16:36.837Z,96.81
2023-11-23T05:19:05.232Z,96.61
2023-11-23T05:21:33.987Z,96.64
2023-11-23T05:24:04.546Z,96.93
2023-11-23T05:26:33.006Z,97.07
2023-11-23T05:29:01.832Z,97.22
2023-11-23T05:31:29.961Z,97.73
2023-11-23T05:33:58.149Z,97.46
2023-11-23T05:36:26.341Z,97.55
2023-11-23T05:38:54.460Z,97.73
2023-11-23T05:41:22.550Z,97.87
2023-11-23T05:43:52.061Z,98.53
2023-11-23T05:46:20.141Z,98.95
2023-11-23T05:48:49.075Z,99.39
2023-11-23T05:51:17.205Z,99.76
2023-11-23T05:53:46.039Z,99.76
2023-11-23T05:56:14.099Z,99.90
2023-11-23T05:58:42.150Z,99.93
2023-11-23T06:01:12.589Z,99.37
2023-11-23T06:03:44.533Z,98.67
2023-11-23T06:06:21.049Z,98.04
2023-11-23T06:08:50.266Z,97.89
2023-11-23T06:11:19.588Z,97.71
2023-11-23T06:13:48.540Z,97.34
2023-11-23T06:16:16.923Z,97.11
2023-11-23T06:18:45.795Z,97.11
2023-11-23T06:21:13.959Z,96.93
2023-11-23T06:23:42.078Z,96.73
2023-11-23T06:26:11.300Z,96.62
2023-11-23T06:28:39.546Z,96.50
2023-11-23T06:31:08.171Z,96.32
2023-11-23T06:33:36.462Z,96.25
2023-11-23T06:36:05.063Z,96.12
2023-11-23T06:38:33.550Z,96.06
2023-11-23T06:41:01.588Z,95.55
2023-11-23T06:43:30.083Z,95.33
2023-11-23T06:45:58.202Z,95.20
2023-11-23T06:48:26.276Z,94.99
2023-11-23T06:50:54.504Z,95.43
2023-11-23T06:53:22.910Z,95.04
2023-11-23T06:55:51.078Z,94.76
2023-11-23T06:58:19.167Z,94.65
2023-11-23T07:00:47.972Z,94.77
2023-11-23T07:03:16.052Z,94.68
2023-11-23T07:05:44.551Z,94.50
2023-11-23T07:08:14.355Z,94.41
2023-11-23T07:10:42.580Z,94.26
2023-11-23T07:13:11.269Z,94.47
2023-11-23T07:15:39.469Z,94.58
2023-11-23T07:18:07.735Z,94.19
2023-11-23T07:20:35.833Z,94.07
2023-11-23T07:23:04.444Z,94.25
2023-11-23T07:25:37.795Z,94.07
2023-11-23T07:28:06.049Z,94.00
2023-11-23T07:30:34.217Z,93.91
2023-11-23T07:33:02.301Z,93.92
2023-11-23T07:35:31.886Z,93.98
2023-11-23T07:38:02.020Z,93.87
2023-11-23T07:40:30.922Z,94.13
2023-11-23T07:42:59.920Z,96.42
2023-11-23T07:45:28.770Z,97.61
2023-11-23T07:47:56.925Z,94.54
2023-11-23T07:50:24.956Z,93.64
2023-11-23T07:52:52.955Z,93.50
2023-11-23T07:55:21.938Z,94.24
2023-11-23T07:57:50.148Z,93.91
2023-11-23T08:00:21.657Z,93.82
2023-11-23T08:02:49.894Z,93.95
2023-11-23T08:05:18.962Z,93.86
2023-11-23T08:07:48.141Z,93.75
2023-11-23T08:10:16.975Z,94.19
2023-11-23T08:12:45.828Z,94.00
2023-11-23T08:15:14.623Z,93.74
2023-11-23T08:17:53.880Z,94.14
2023-11-23T08:20:28.069Z,94.42
2023-11-23T08:22:56.265Z,93.54
2023-11-23T08:25:24.274Z,93.37
2023-11-23T08:27:52.773Z,93.34
2023-11-23T08:30:23.576Z,92.85
2023-11-23T08:32:51.985Z,93.40
2023-11-23T08:35:20.065Z,93.34
2023-11-23T08:37:49.129Z,92.87
2023-11-23T08:40:17.302Z,92.82
2023-11-23T08:42:45.402Z,93.20
2023-11-23T08:45:13.652Z,93.19
2023-11-23T08:47:41.890Z,93.14
2023-11-23T08:50:10.553Z,93.03
2023-11-23T08:52:39.266Z,92.93
2023-11-23T08:55:10.064Z,92.27
2023-11-23T08:57:38.766Z,92.11
2023-11-23T09:00:12.078Z,91.70
2023-11-23T09:02:40.406Z,91.30
2023-11-23T09:05:11.533Z,91.26
2023-11-23T09:07:40.287Z,91.93
2023-11-23T09:10:09.454Z,91.71
2023-11-23T09:12:37.823Z,91.14
2023-11-23T09:15:08.996Z,90.70
2023-11-23T09:17:37.909Z,90.88
2023-11-23T09:20:09.894Z,90.76
2023-11-23T09:22:38.565Z,90.59
2023-11-23T09:25:07.781Z,90.74
2023-11-23T09:27:38.094Z,90.44
2023-11-23T09:30:08.436Z,90.65
2023-11-23T09:32:39.200Z,90.52
2023-11-23T09:35:12.073Z,90.00
2023-11-23T09:37:41.843Z,89.90
2023-11-23T09:40:19.073Z,89.97
2023-11-23T09:42:51.224Z,89.69
2023-11-23T09:45:24.100Z,90.05
2023-11-23T09:47:57.745Z,90.04
2023-11-23T09:50:34.793Z,90.64
2023-11-23T09:53:07.889Z,90.09
2023-11-23T09:55:36.451Z,91.04
2023-11-23T09:58:06.051Z,90.31
2023-11-23T10:00:37.111Z,90.31
2023-11-23T10:03:08.909Z,90.25
2023-11-23T10:05:39.770Z,90.08
2023-11-23T10:08:08.416Z,90.43
2023-11-23T10:10:39.383Z,90.96
2023-11-23T10:13:10.322Z,91.47
2023-11-23T10:15:38.948Z,92.29
2023-11-23T10:18:08.173Z,93.00
2023-11-23T10:20:39.872Z,92.63
2023-11-23T10:23:08.907Z,94.66
2023-11-23T10:25:37.176Z,93.24
2023-11-23T10:28:06.118Z,92.96
2023-11-23T10:30:40.891Z,93.16
2023-11-23T10:33:12.712Z,92.95
2023-11-23T10:35:47.683Z,93.73
2023-11-23T10:38:17.510Z,94.19
2023-11-23T10:40:47.209Z,94.49
2023-11-23T10:43:18.504Z,94.69
2023-11-23T10:45:49.510Z,94.42
2023-11-23T10:48:24.352Z,94.70
2023-11-23T10:50:57.586Z,95.05
2023-11-23T10:53:27.774Z,95.11
2023-11-23T10:56:00.654Z,95.16
2023-11-23T10:58:32.110Z,95.03
2023-11-23T11:01:02.394Z,95.21
2023-11-23T11:03:31.148Z,95.31
2023-11-23T11:06:00.380Z,95.80
2023-11-23T11:08:31.299Z,98.18
2023-11-23T11:10:59.324Z,97.68
2023-11-23T11:13:30.485Z,95.91
2023-11-23T11:16:07.780Z,95.16
2023-11-23T11:18:36.524Z,94.34
2023-11-23T11:21:09.018Z,94.17
2023-11-23T11:23:41.574Z,94.71
2023-11-23T11:26:17.960Z,94.75
2023-11-23T11:28:59.217Z,94.90
2023-11-23T11:31:34.965Z,94.69
2023-11-23T11:34:21.037Z,95.49
2023-11-23T11:37:01.278Z,95.22
2023-11-23T11:39:37.775Z,95.47
2023-11-23T11:42:08.333Z,96.27
2023-11-23T11:44:43.450Z,97.00
2023-11-23T11:47:13.388Z,97.42
2023-11-23T11:49:41.647Z,97.81
2023-11-23T11:52:13.290Z,98.25
2023-11-23T11:54:42.300Z,98.87
2023-11-23T11:57:10.696Z,99.51
2023-11-23T11:59:39.890Z,99.79
2023-11-23T12:02:15.489Z,100.00
2023-11-23T12:05:04.105Z,100.00
2023-11-23T12:07:40.172Z,100.00
2023-11-23T12:10:19.400Z,100.00
2023-11-23T12:12:49.099Z,100.00
2023-11-23T12:15:25.823Z,100.00
2023-11-23T12:18:05.534Z,100.00
2023-11-23T12:20:55.003Z,100.00
2023-11-23T12:24:05.885Z,100.00
2023-11-23T12:26:43.271Z,100.00
2023-11-23T12:29:34.609Z,100.00
2023-11-23T12:32:45.695Z,100.00
2023-11-23T12:35:20.617Z,100.00
2023-11-23T12:37:59.502Z,100.00
2023-11-23T12:40:58.308Z,100.00
2023-11-23T12:43:35.602Z,100.00
2023-11-23T12:46:05.449Z,100.00
2023-11-23T12:49:05.881Z,100.00
2023-11-23T12:52:00.081Z,100.00
2023-11-23T12:54:39.858Z,100.00
2023-11-23T12:57:17.692Z,100.00
2023-11-23T12:59:48.224Z,100.00
2023-11-23T13:02:16.376Z,100.00
2023-11-23T13:04:44.696Z,100.00
2023-11-23T13:07:12.943Z,100.00
2023-11-23T13:09:41.159Z,100.00
2023-11-23T13:12:10.486Z,100.00
2023-11-23T13:14:40.448Z,100.00
2023-11-23T13:17:09.509Z,100.00
2023-11-23T13:19:43.394Z,100.00
2023-11-23T13:22:13.550Z,100.00
2023-11-23T13:24:44.656Z,100.00
2023-11-23T13:27:15.044Z,100.00
2023-11-23T13:29:43.911Z,100.00
2023-11-23T13:32:12.134Z,100.00
2023-11-23T13:34:40.435Z,100.00
2023-11-23T13:37:09.971Z,100.00
2023-11-23T13:39:39.585Z,100.00
2023-11-23T13:42:08.239Z,100.00
2023-11-23T13:44:36.391Z,100.00
2023-11-23T13:47:05.704Z,100.00
2023-11-23T13:49:34.012Z,100.00
2023-11-23T13:52:04.078Z,100.00
2023-11-23T13:54:32.669Z,100.00
2023-11-23T13:57:01.643Z,100.00
2023-11-23T13:59:30.356Z,100.00
2023-11-23T14:01:59.687Z,100.00
2023-11-23T14:04:28.568Z,100.00
2023-11-23T14:06:58.289Z,100.00
2023-11-23T14:09:29.131Z,100.00
2023-11-23T14:11:58.332Z,100.00
2023-11-23T14:14:29.297Z,100.00
2023-11-23T14:16:57.577Z,100.00
2023-11-23T14:19:26.337Z,100.00
2023-11-23T14:21:56.705Z,100.00
2023-11-23T14:24:24.844Z,100.00
2023-11-23T14:26:54.700Z,100.00
2023-11-23T14:29:24.429Z,100.00
2023-11-23T14:31:53.047Z,100.00
2023-11-23T14:34:22.837Z,100.00
2023-11-23T14:36:55.843Z,100.00
2023-11-23T14:39:28.741Z,100.00
2023-11-23T14:41:57.992Z,100.00
2023-11-23T14:44:26.214Z,100.00
2023-11-23T14:46:54.513Z,100.00
2023-11-23T14:49:23.639Z,100.00
2023-11-23T14:51:52.350Z,100.00
2023-11-23T14:54:31.696Z,100.00
2023-11-23T14:57:08.358Z,100.00
2023-11-23T14:59:37.455Z,100.00
2023-11-23T15:02:07.801Z,100.00
2023-11-23T15:04:36.667Z,100.00
2023-11-23T15:07:04.926Z,100.00
2023-11-23T15:09:33.125Z,100.00
2023-11-23T15:12:02.855Z,100.00
2023-11-23T15:14:32.210Z,100.00
2023-11-23T15:17:01.085Z,100.00
2023-11-23T15:19:32.843Z,100.00
2023-11-23T15:22:07.277Z,100.00
2023-11-23T15:24:36.436Z,100.00
2023-11-23T15:27:08.392Z,100.00
2023-11-23T15:29:37.366Z,100.00
2023-11-23T15:32:07.281Z,100.00
2023-11-23T15:34:35.665Z,100.00
2023-11-23T15:37:04.766Z,100.00
2023-11-23T15:39:33.797Z,100.00
2023-11-23T15:42:02.586Z,100.00
2023-11-23T15:44:30.814Z,100.00
2023-11-23T15:46:58.973Z,100.00
2023-11-23T15:49:27.197Z,100.00
2023-11-23T15:51:55.975Z,100.00
2023-11-23T15:54:25.567Z,100.00
2023-11-23T15:56:53.706Z,100.00
2023-11-23T15:59:21.914Z,100.00
2023-11-23T16:01:50.016Z,100.00
2023-11-23T16:04:18.370Z,100.00
2023-11-23T16:06:46.926Z,100.00
2023-11-23T16:09:16.855Z,100.00
2023-11-23T16:11:45.697Z,100.00
2023-11-23T16:14:14.144Z,100.00
2023-11-23T16:16:42.781Z,100.00
2023-11-23T16:19:12.860Z,100.00
2023-11-23T16:21:41.547Z,100.00
2023-11-23T16:24:11.834Z,100.00
2023-11-23T16:26:40.614Z,100.00
2023-11-23T16:29:11.855Z,100.00
2023-11-23T16:31:45.951Z,100.00
2023-11-23T16:34:16.187Z,100.00
2023-11-23T16:36:46.795Z,100.00
2023-11-23T16:39:16.895Z,100.00
2023-11-23T16:41:46.632Z,100.00
2023-11-23T16:44:17.303Z,100.00
2023-11-23T16:46:47.562Z,100.00
2023-11-23T16:49:16.262Z,100.00
2023-11-23T16:51:44.937Z,100.00
2023-11-23T16:54:13.873Z,100.00
2023-11-23T16:56:42.698Z,100.00
2023-11-23T16:59:11.983Z,100.00
2023-11-23T17:01:41.349Z,100.00
2023-11-23T17:04:10.454Z,100.00
2023-11-23T17:06:41.751Z,100.00
2023-11-23T17:09:11.565Z,100.00
2023-11-23T17:11:40.214Z,100.00
2023-11-23T17:14:11.845Z,100.00
2023-11-23T17:16:41.518Z,100.00
2023-11-23T17:19:13.699Z,100.00
2023-11-23T17:21:44.072Z,100.00
2023-11-23T17:24:12.282Z,100.00
2023-11-23T17:26:42.148Z,100.00
2023-11-23T17:29:13.014Z,100.00
2023-11-23T17:31:42.577Z,100.00
2023-11-23T17:34:12.065Z,100.00
2023-11-23T17:36:40.322Z,100.00
2023-11-23T17:39:13.663Z,100.00
2023-11-23T17:41:45.683Z,100.00
2023-11-23T17:44:16.896Z,100.00
2023-11-23T17:46:45.271Z,100.00
2023-11-23T17:49:17.216Z,100.00
2023-11-23T17:51:46.238Z,100.00
2023-11-23T17:54:15.809Z,100.00
2023-11-23T17:56:44.313Z,100.00
2023-11-23T18:01:43.371Z,100.00
2023-11-23T18:04:11.402Z,100.00
2023-11-23T18:06:39.609Z,100.00
2023-11-23T18:09:07.770Z,100.00
2023-11-23T18:11:37.892Z,100.00
2023-11-23T18:14:06.133Z,100.00
2023-11-23T18:16:34.217Z,100.00
2023-11-23T18:19:02.448Z,100.00
2023-11-23T18:21:30.701Z,100.00
2023-11-23T18:23:58.808Z,99.87
2023-11-23T18:26:26.872Z,99.92
2023-11-23T18:28:54.811Z,99.90
2023-11-23T18:31:24.208Z,99.33
2023-11-23T18:33:53.209Z,98.91
2023-11-23T18:36:22.851Z,98.69
2023-11-23T18:38:50.931Z,98.51
2023-11-23T18:41:19.022Z,98.55
2023-11-23T18:43:47.074Z,97.95
2023-11-23T18:46:15.729Z,98.19
2023-11-23T18:48:44.574Z,97.72
2023-11-23T18:51:12.749Z,97.79
2023-11-23T18:53:41.387Z,97.27
2023-11-23T18:56:09.522Z,97.24
2023-11-23T18:58:37.627Z,96.94
2023-11-23T19:01:06.125Z,97.37
2023-11-23T19:03:34.335Z,97.60
2023-11-23T19:06:02.538Z,97.36
2023-11-23T19:08:30.685Z,97.32
2023-11-23T19:10:58.896Z,97.65
2023-11-23T19:13:29.191Z,97.87
2023-11-23T19:15:57.834Z,97.68
2023-11-23T19:18:26.762Z,97.38
2023-11-23T19:20:57.459Z,97.70
2023-11-23T19:23:26.928Z,99.04
2023-11-23T19:25:55.408Z,99.96
2023-11-23T19:28:23.747Z,100.00
2023-11-23T19:30:52.792Z,100.00
2023-11-23T19:33:22.000Z,100.00
2023-11-23T19:35:50.585Z,100.00
2023-11-23T19:38:18.892Z,100.00
2023-11-23T19:40:47.501Z,100.00
2023-11-23T19:43:17.289Z,100.00
2023-11-23T19:45:47.704Z,100.00
2023-11-23T19:48:16.294Z,100.00
2023-11-23T19:50:45.221Z,100.00
2023-11-23T19:53:15.526Z,100.00
2023-11-23T19:55:45.048Z,100.00
2023-11-23T19:58:13.043Z,100.00
2023-11-23T20:00:41.011Z,100.00
2023-11-23T20:03:09.127Z,100.00
2023-11-23T20:05:37.206Z,100.00
2023-11-23T20:08:05.290Z,100.00
2023-11-23T20:10:33.445Z,100.00
2023-11-23T20:13:02.972Z,100.00
2023-11-23T20:15:31.580Z,100.00
2023-11-23T20:17:59.746Z,100.00
2023-11-23T20:20:29.638Z,100.00
2023-11-23T20:22:58.499Z,100.00
2023-11-23T20:25:26.965Z,100.00
2023-11-23T20:27:55.119Z,100.00
2023-11-23T20:30:23.235Z,100.00
2023-11-23T20:32:52.519Z,100.00
2023-11-23T20:35:21.917Z,100.00
2023-11-23T20:37:51.907Z,100.00
2023-11-23T20:40:21.120Z,100.00
2023-11-23T20:42:49.622Z,100.00
2023-11-23T20:45:17.988Z,100.00
2023-11-23T20:47:46.270Z,100.00
2023-11-23T20:50:15.122Z,100.00
2023-11-23T20:52:43.165Z,100.00
2023-11-23T20:55:16.702Z,100.00
2023-11-23T20:57:47.738Z,100.00
2023-11-23T21:00:17.554Z,100.00
2023-11-23T21:02:46.389Z,100.00
2023-11-23T21:05:17.178Z,100.00
2023-11-23T21:07:45.642Z,100.00
2023-11-23T21:10:14.609Z,100.00
2023-11-23T21:12:42.942Z,100.00
2023-11-23T21:15:11.265Z,100.00
2023-11-23T21:17:40.700Z,100.00
2023-11-23T21:20:10.414Z,100.00
2023-11-23T21:22:38.378Z,100.00
2023-11-23T21:25:08.565Z,100.00
2023-11-23T21:27:41.880Z,100.00
2023-11-23T21:30:10.517Z,100.00
2023-11-23T21:32:39.249Z,100.00
2023-11-23T21:35:11.361Z,100.00
2023-11-23T21:37:39.934Z,100.00
2023-11-23T21:40:10.312Z,100.00
2023-11-23T21:42:39.020Z,100.00
2023-11-23T21:45:08.252Z,100.00
2023-11-23T21:47:38.423Z,100.00
2023-11-23T21:50:08.996Z,100.00
2023-11-23T21:52:38.299Z,100.00
2023-11-23T21:55:07.347Z,100.00
2023-11-23T21:57:36.175Z,100.00
2023-11-23T22:00:05.223Z,100.00
2023-11-23T22:02:34.105Z,100.00
2023-11-23T22:05:02.392Z,100.00
2023-11-23T22:07:30.505Z,100.00
2023-11-23T22:09:58.617Z,100.00
2023-11-23T22:12:26.621Z,100.00
2023-11-23T22:14:54.567Z,100.00
2023-11-23T22:17:23.116Z,100.00
2023-11-23T22:19:51.930Z,100.00
2023-11-23T22:22:20.863Z,100.00
2023-11-23T22:24:49.169Z,100.00
2023-11-23T22:27:17.829Z,100.00
2023-11-23T22:29:46.051Z,100.00
2023-11-23T22:32:18.935Z,100.00
2023-11-23T22:34:47.363Z,100.00
2023-11-23T22:37:15.930Z,100.00
2023-11-23T22:39:44.707Z,100.00
2023-11-23T22:42:13.512Z,100.00
2023-11-23T22:44:41.911Z,100.00
2023-11-23T22:47:10.047Z,100.00
2023-11-23T22:49:38.725Z,100.00
2023-11-23T22:52:06.755Z,100.00
2023-11-23T22:54:35.358Z,100.00
2023-11-23T22:57:04.473Z,100.00
2023-11-23T22:59:32.717Z,100.00
2023-11-23T23:02:03.143Z,100.00
2023-11-23T23:04:32.538Z,100.00
2023-11-23T23:07:00.747Z,100.00
2023-11-23T23:09:29.026Z,100.00
2023-11-23T23:11:57.159Z,100.00
2023-11-23T23:14:29.055Z,100.00
2023-11-23T23:16:57.576Z,100.00
2023-11-23T23:19:25.773Z,100.00
2023-11-23T23:21:54.213Z,100.00
2023-11-23T23:24:22.330Z,100.00
2023-11-23T23:26:50.394Z,100.00
2023-11-23T23:29:18.455Z,100.00
2023-11-23T23:31:47.050Z,100.00
2023-11-23T23:34:15.717Z,100.00
2023-11-23T23:36:44.053Z,100.00
2023-11-23T23:39:12.195Z,100.00
2023-11-23T23:41:40.496Z,100.00
2023-11-23T23:44:08.626Z,100.00
2023-11-23T23:46:36.725Z,100.00
2023-11-23T23:49:05.721Z,100.00
2023-11-23T23:51:33.800Z,100.00
2023-11-23T23:54:01.847Z,100.00
2023-11-23T23:56:29.812Z,100.00
2023-11-23T23:58:57.782Z,99.93
